createdAt,value
2023-01-12T00:04:13.996Z,100689.64
2023-01-12T00:09:16.687Z,100691.42
2023-01-12T00:14:19.371Z,100697.52
2023-01-12T00:19:23.113Z,100699.46
2023-01-12T00:24:34.681Z,100703.41
2023-01-12T00:29:37.601Z,100696.49
2023-01-12T00:34:40.171Z,100686.24
2023-01-12T00:39:53.194Z,100683.54
2023-01-12T00:45:18.068Z,100677.43
2023-01-12T00:50:21.126Z,100670.67
2023-01-12T00:55:23.648Z,100669.63
2023-01-12T01:00:26.593Z,100668.59
2023-01-12T01:05:30.278Z,100662.98
2023-01-12T01:10:33.025Z,100654.51
2023-01-12T01:15:36.554Z,100658.21
2023-01-12T01:20:39.196Z,100666.69
2023-01-12T01:25:41.727Z,100663.78
2023-01-12T01:30:46.150Z,100664.69
2023-01-12T01:35:48.640Z,100651.07
2023-01-12T01:40:51.584Z,100639.71
2023-01-12T01:46:08.103Z,100631.56
2023-01-12T01:51:15.939Z,100628.63
2023-01-12T01:56:27.793Z,100629.52
2023-01-12T02:01:31.283Z,100630.46
2023-01-12T02:06:34.375Z,100623.38
2023-01-12T02:11:55.964Z,100617.54
2023-01-12T02:17:22.412Z,100604.88
2023-01-12T02:22:51.329Z,100595.34
2023-01-12T02:28:17.045Z,100594.85
2023-01-12T02:33:36.189Z,100581.48
2023-01-12T02:39:14.717Z,100581.84
2023-01-12T02:44:28.541Z,100573.94
2023-01-12T02:49:37.049Z,100572.25
2023-01-12T02:54:42.349Z,100561.55
2023-01-12T02:59:46.641Z,100557.23
2023-01-12T03:04:49.789Z,100556.13
2023-01-12T03:09:59.873Z,100559.03
2023-01-12T03:15:06.545Z,100558.12
2023-01-12T03:20:19.326Z,100551.98
2023-01-12T03:25:24.144Z,100549.98
2023-01-12T03:30:43.945Z,100548.72
2023-01-12T03:36:07.138Z,100544.61
2023-01-12T03:41:19.749Z,100541.73
2023-01-12T03:46:27.987Z,100545.01
2023-01-12T03:51:35.174Z,100541.95
2023-01-12T03:56:39.645Z,100543.53
2023-01-12T04:01:43.361Z,100542.94
2023-01-12T04:06:46.020Z,100536.17
2023-01-12T04:12:07.364Z,100533.77
2023-01-12T04:17:13.364Z,100523.11
2023-01-12T04:22:34.925Z,100516.23
2023-01-12T04:27:41.845Z,100509.18
2023-01-12T04:32:45.173Z,100507.98
2023-01-12T04:37:48.140Z,100501.47
2023-01-12T04:43:01.316Z,100497.76
2023-01-12T04:48:07.058Z,100494.85
2023-01-12T04:53:11.508Z,100492.23
2023-01-12T04:58:14.253Z,100485.89
2023-01-12T05:03:17.528Z,100484.41
2023-01-12T05:08:39.086Z,100484.84
2023-01-12T05:13:41.997Z,100478.23
2023-01-12T05:18:46.204Z,100471.72
2023-01-12T05:23:53.248Z,100469.34
2023-01-12T05:28:55.868Z,100464.98
2023-01-12T05:33:58.375Z,100461.74
2023-01-12T05:39:00.926Z,100462.29
2023-01-12T05:44:03.551Z,100457.96
2023-01-12T05:49:06.344Z,100462.09
2023-01-12T05:54:08.986Z,100450.77
2023-01-12T05:59:12.255Z,100447.70
2023-01-12T06:04:14.884Z,100446.27
2023-01-12T06:09:17.500Z,100444.08
2023-01-12T06:14:20.234Z,100440.95
2023-01-12T06:19:22.830Z,100442.95
2023-01-12T06:24:28.240Z,100441.25
2023-01-12T06:29:30.887Z,100439.44
2023-01-12T06:34:35.447Z,100446.21
2023-01-12T06:39:37.997Z,100444.11
2023-01-12T06:44:40.944Z,100436.55
2023-01-12T06:49:43.872Z,100430.69
2023-01-12T06:54:46.641Z,100421.34
2023-01-12T06:59:49.624Z,100420.23
2023-01-12T07:04:52.292Z,100420.45
2023-01-12T07:09:54.933Z,100419.14
2023-01-12T07:14:59.404Z,100417.27
2023-01-12T07:20:02.019Z,100410.31
2023-01-12T07:25:04.868Z,100401.59
2023-01-12T07:30:08.537Z,100400.94
2023-01-12T07:35:11.154Z,100397.91
2023-01-12T07:40:13.839Z,100394.60
2023-01-12T07:45:16.508Z,100384.78
2023-01-12T07:50:19.322Z,100379.39
2023-01-12T07:55:21.975Z,100374.74
2023-01-12T08:00:25.668Z,100365.30
2023-01-12T08:05:28.476Z,100365.03
2023-01-12T08:10:31.740Z,100360.30
2023-01-12T08:15:40.907Z,100350.61
2023-01-12T08:20:44.278Z,100346.14
2023-01-12T08:25:56.254Z,100348.77
2023-01-12T08:30:59.072Z,100342.15
2023-01-12T08:36:04.274Z,100343.79
2023-01-12T08:41:26.227Z,100338.05
2023-01-12T08:46:35.065Z,100329.73
2023-01-12T08:51:39.628Z,100323.13
2023-01-12T08:56:43.113Z,100319.73
2023-01-12T09:01:46.230Z,100312.08
2023-01-12T09:06:49.068Z,100306.42
2023-01-12T09:11:52.205Z,100298.31
2023-01-12T09:16:57.021Z,100291.81
2023-01-12T09:21:59.872Z,100292.09
2023-01-12T09:27:02.418Z,100280.10
2023-01-12T09:32:05.283Z,100272.14
2023-01-12T09:37:07.841Z,100267.35
2023-01-12T09:42:38.387Z,100267.40
2023-01-12T09:47:56.279Z,100259.78
2023-01-12T09:53:17.897Z,100255.45
2023-01-12T09:58:44.662Z,100242.22
2023-01-12T10:03:48.008Z,100239.31
2023-01-12T10:08:55.730Z,100236.48
2023-01-12T10:14:13.496Z,100227.35
2023-01-12T10:19:21.157Z,100222.29
2023-01-12T10:24:25.547Z,100215.80
2023-01-12T10:29:30.932Z,100214.30
2023-01-12T10:34:51.413Z,100208.20
2023-01-12T10:39:54.950Z,100206.90
2023-01-12T10:45:20.873Z,100195.15
2023-01-12T10:50:28.013Z,100186.25
2023-01-12T10:55:33.974Z,100183.34
2023-01-12T11:00:36.663Z,100181.71
2023-01-12T11:05:39.372Z,100160.42
2023-01-12T11:10:42.122Z,100157.29
2023-01-12T11:16:00.194Z,100141.39
2023-01-12T11:21:08.627Z,100133.98
2023-01-12T11:26:20.447Z,100123.85
2023-01-12T11:31:28.475Z,100094.70
2023-01-12T11:36:41.515Z,100109.34
2023-01-12T11:42:13.577Z,100116.67
2023-01-12T11:47:23.270Z,100109.66
2023-01-12T11:52:27.755Z,100104.52
2023-01-12T11:57:42.924Z,100093.45
2023-01-12T12:03:14.368Z,100099.39
2023-01-12T12:08:49.052Z,100083.88
2023-01-12T12:14:26.735Z,100073.70
2023-01-12T12:19:48.197Z,100079.98
2023-01-12T12:24:58.517Z,100069.45
2023-01-12T12:30:07.413Z,100070.36
2023-01-12T12:35:29.036Z,100069.99
2023-01-12T12:41:06.739Z,100068.27
2023-01-12T12:46:47.889Z,100062.48
2023-01-12T12:51:51.400Z,100073.59
2023-01-12T12:56:55.700Z,100062.96
2023-01-12T13:02:01.094Z,100069.27
2023-01-12T13:07:06.345Z,100061.63
2023-01-12T13:12:19.982Z,100069.88
2023-01-12T13:17:22.618Z,100062.17
2023-01-12T13:22:45.040Z,100066.73
2023-01-12T13:28:00.787Z,100063.77
2023-01-12T13:33:29.858Z,100061.19
2023-01-12T13:38:55.366Z,100052.02
2023-01-12T13:43:58.463Z,100055.04
2023-01-12T13:49:02.417Z,100058.80
2023-01-12T13:54:12.605Z,100060.58
2023-01-12T13:59:18.717Z,100064.53
2023-01-12T14:04:36.861Z,100069.96
2023-01-12T14:09:57.442Z,100063.52
2023-01-12T14:15:45.541Z,100064.14
2023-01-12T14:20:51.161Z,100065.61
2023-01-12T14:26:05.587Z,100066.84
2023-01-12T14:31:27.393Z,100065.41
2023-01-12T14:36:36.821Z,100063.71
2023-01-12T14:41:58.477Z,100078.07
2023-01-12T14:47:01.056Z,100068.19
2023-01-12T14:52:23.982Z,100064.21
2023-01-12T14:57:36.408Z,100068.61
2023-01-12T15:02:41.416Z,100063.10
2023-01-12T15:08:06.943Z,100074.13
2023-01-12T15:13:33.026Z,100071.09
2023-01-12T15:18:54.604Z,100073.04
2023-01-12T15:24:16.485Z,100076.91
2023-01-12T15:29:19.055Z,100072.27
2023-01-12T15:34:21.824Z,100076.34
2023-01-12T15:39:24.369Z,100072.10
2023-01-12T15:44:27.344Z,100070.23
2023-01-12T15:49:29.863Z,100076.71
2023-01-12T15:54:32.464Z,100075.25
2023-01-12T15:59:35.037Z,100072.34
2023-01-12T16:04:43.258Z,100082.54
2023-01-12T16:09:47.951Z,100085.30
2023-01-12T16:14:51.076Z,100081.15
2023-01-12T16:19:53.889Z,100083.60
2023-01-12T16:24:56.852Z,100083.23
2023-01-12T16:29:59.545Z,100087.16
2023-01-12T16:35:02.044Z,100085.98
2023-01-12T16:40:05.106Z,100089.13
2023-01-12T16:45:08.143Z,100086.87
2023-01-12T16:50:10.839Z,100089.80
2023-01-12T16:55:13.714Z,100094.55
2023-01-12T17:00:16.766Z,100093.02
2023-01-12T17:05:20.494Z,100091.04
2023-01-12T17:10:23.436Z,100086.36
2023-01-12T17:15:26.266Z,100091.45
2023-01-12T17:20:29.874Z,100090.48
2023-01-12T17:25:33.519Z,100086.23
2023-01-12T17:30:39.222Z,100084.19
2023-01-12T17:35:41.858Z,100087.27
2023-01-12T17:40:45.204Z,100083.58
2023-01-12T17:45:48.628Z,100085.30
2023-01-12T17:50:51.298Z,100080.23
2023-01-12T17:55:53.929Z,100084.15
2023-01-12T18:00:56.520Z,100082.23
2023-01-12T18:06:04.713Z,100079.56
2023-01-12T18:11:09.715Z,100075.70
2023-01-12T18:16:14.475Z,100074.38
2023-01-12T18:21:21.379Z,100071.92
2023-01-12T18:26:26.516Z,100071.17
2023-01-12T18:31:32.950Z,100074.12
2023-01-12T18:36:41.204Z,100065.52
2023-01-12T18:42:03.583Z,100056.63
2023-01-12T18:47:25.539Z,100057.50
2023-01-12T18:52:46.869Z,100051.88
2023-01-12T18:57:49.680Z,100045.94
2023-01-12T19:02:52.555Z,100042.75
2023-01-12T19:07:58.045Z,100041.14
2023-01-12T19:13:19.935Z,100038.67
2023-01-12T19:18:22.880Z,100040.95
2023-01-12T19:23:44.041Z,100036.94
2023-01-12T19:28:46.683Z,100038.94
2023-01-12T19:33:49.225Z,100033.65
2023-01-12T19:38:52.840Z,100029.59
2023-01-12T19:43:55.430Z,100028.10
2023-01-12T19:48:58.191Z,100024.23
2023-01-12T19:54:00.734Z,100022.17
2023-01-12T19:59:03.426Z,100018.27
2023-01-12T20:04:05.972Z,100024.52
2023-01-12T20:09:08.633Z,100023.45
2023-01-12T20:14:11.143Z,100023.29
2023-01-12T20:19:13.853Z,100020.86
2023-01-12T20:24:16.516Z,100022.41
2023-01-12T20:29:19.669Z,100020.47
2023-01-12T20:34:22.227Z,100021.39
2023-01-12T20:39:24.918Z,100014.32
2023-01-12T20:44:27.717Z,100012.60
2023-01-12T20:49:30.460Z,100013.46
2023-01-12T20:54:33.122Z,100014.61
2023-01-12T20:59:37.630Z,100008.33
2023-01-12T21:04:40.219Z,100008.06
2023-01-12T21:09:42.990Z,100003.87
2023-01-12T21:14:45.595Z,99998.95
2023-01-12T21:19:48.350Z,100004.07
2023-01-12T21:24:51.150Z,99998.41
2023-01-12T21:29:54.015Z,99995.87
2023-01-12T21:34:56.547Z,99994.64
2023-01-12T21:39:59.248Z,99984.71
2023-01-12T21:45:02.223Z,99981.58
2023-01-12T21:50:05.715Z,99978.54
2023-01-12T21:55:11.397Z,99984.35
2023-01-12T22:00:14.804Z,99979.52
2023-01-12T22:05:18.415Z,99973.73
2023-01-12T22:10:22.168Z,99969.14
2023-01-12T22:15:26.836Z,99964.44
2023-01-12T22:20:29.523Z,99961.16
2023-01-12T22:25:32.697Z,99959.23
2023-01-12T22:30:35.313Z,99955.90
2023-01-12T22:35:38.137Z,99951.80
2023-01-12T22:40:40.805Z,99951.21
2023-01-12T22:45:43.528Z,99951.98
2023-01-12T22:50:47.483Z,99942.60
2023-01-12T22:55:51.759Z,99945.09
2023-01-12T23:00:54.464Z,99940.11
2023-01-12T23:05:57.715Z,99936.81
2023-01-12T23:11:13.534Z,99930.34
2023-01-12T23:16:18.064Z,99932.56
2023-01-12T23:21:27.587Z,99921.79
2023-01-12T23:26:32.679Z,99910.74
2023-01-12T23:31:35.486Z,99913.48
2023-01-12T23:36:38.551Z,99913.00
2023-01-12T23:41:41.282Z,99906.77
2023-01-12T23:46:44.038Z,99902.07
2023-01-12T23:51:46.660Z,99899.95
2023-01-12T23:56:53.250Z,99894.61
